sensor_id;sensor_type;location;lat;lon;timestamp;pressure;altitude;pressure_sealevel;temperature;humidity
11038;BME280;5572;49.540;11.932;2024-03-07T08:40:10;97627.25;;;7.69;100.00
11038;BME280;5572;49.540;11.932;2024-03-07T09:55:13;97594.94;;;6.76;100.00
11038;BME280;5572;49.540;11.932;2024-03-07T11:18:41;97406.78;;;8.27;100.00
11038;BME280;5572;49.540;11.932;2024-03-07T11:21:40;97407.38;;;8.60;100.00
11038;BME280;5572;49.540;11.932;2024-03-07T11:24:10;97413.63;;;7.91;100.00
11038;BME280;5572;49.540;11.932;2024-03-07T11:26:54;97415.06;;;8.20;100.00
11038;BME280;5572;49.540;11.932;2024-03-07T11:29:45;97405.78;;;8.33;100.00
11038;BME280;5572;49.540;11.932;2024-03-07T11:32:19;97393.22;;;9.11;100.00
11038;BME280;5572;49.540;11.932;2024-03-07T11:35:05;97420.03;;;8.33;100.00
11038;BME280;5572;49.540;11.932;2024-03-07T11:38:08;97428.13;;;7.90;100.00
11038;BME280;5572;49.540;11.932;2024-03-07T12:16:17;97388.47;;;8.29;100.00
11038;BME280;5572;49.540;11.932;2024-03-07T12:18:44;97377.94;;;8.53;100.00
11038;BME280;5572;49.540;11.932;2024-03-07T12:21:11;97400.75;;;7.72;100.00
11038;BME280;5572;49.540;11.932;2024-03-07T12:23:38;97404.72;;;7.69;100.00
11038;BME280;5572;49.540;11.932;2024-03-07T12:26:05;97388.78;;;8.32;100.00
11038;BME280;5572;49.540;11.932;2024-03-07T12:28:32;97387.78;;;8.38;100.00
11038;BME280;5572;49.540;11.932;2024-03-07T12:30:58;97404.53;;;8.19;100.00
11038;BME280;5572;49.540;11.932;2024-03-07T12:33:29;97420.53;;;7.61;100.00
11038;BME280;5572;49.540;11.932;2024-03-07T12:35:57;97419.72;;;7.82;100.00
11038;BME280;5572;49.540;11.932;2024-03-07T12:38:37;97401.22;;;8.12;100.00
11038;BME280;5572;49.540;11.932;2024-03-07T12:41:07;97396.25;;;7.77;100.00
11038;BME280;5572;49.540;11.932;2024-03-07T12:43:39;97391.56;;;8.16;100.00
11038;BME280;5572;49.540;11.932;2024-03-07T12:46:07;97389.31;;;8.60;100.00
11038;BME280;5572;49.540;11.932;2024-03-07T12:48:38;97381.06;;;8.41;100.00
11038;BME280;5572;49.540;11.932;2024-03-07T12:51:05;97393.03;;;8.54;100.00
11038;BME280;5572;49.540;11.932;2024-03-07T12:53:32;97403.78;;;8.50;100.00
11038;BME280;5572;49.540;11.932;2024-03-07T12:56:00;97399.41;;;8.17;100.00
11038;BME280;5572;49.540;11.932;2024-03-07T12:58:28;97403.06;;;8.95;100.00
11038;BME280;5572;49.540;11.932;2024-03-07T13:00:57;97413.50;;;8.24;100.00
11038;BME280;5572;49.540;11.932;2024-03-07T13:03:25;97433.84;;;7.51;100.00
11038;BME280;5572;49.540;11.932;2024-03-07T13:05:56;97453.75;;;7.34;100.00
11038;BME280;5572;49.540;11.932;2024-03-07T13:08:26;97418.66;;;7.83;100.00
11038;BME280;5572;49.540;11.932;2024-03-07T13:10:54;97424.94;;;8.36;100.00
11038;BME280;5572;49.540;11.932;2024-03-07T13:13:21;97449.72;;;7.74;100.00
11038;BME280;5572;49.540;11.932;2024-03-07T13:15:48;97429.34;;;7.78;100.00
11038;BME280;5572;49.540;11.932;2024-03-07T13:18:17;97458.44;;;7.81;100.00
11038;BME280;5572;49.540;11.932;2024-03-07T13:20:44;97426.47;;;7.84;100.00
11038;BME280;5572;49.540;11.932;2024-03-07T13:23:12;97451.06;;;7.34;100.00
11038;BME280;5572;49.540;11.932;2024-03-07T13:25:39;97487.88;;;8.09;100.00
11038;BME280;5572;49.540;11.932;2024-03-07T13:28:09;97481.47;;;7.18;100.00
11038;BME280;5572;49.540;11.932;2024-03-07T13:30:39;97487.13;;;7.92;100.00
11038;BME280;5572;49.540;11.932;2024-03-07T13:33:10;97481.16;;;7.68;100.00
11038;BME280;5572;49.540;11.932;2024-03-07T13:35:38;97492.63;;;8.02;100.00
11038;BME280;5572;49.540;11.932;2024-03-07T13:38:05;97472.84;;;7.32;100.00
11038;BME280;5572;49.540;11.932;2024-03-07T13:40:34;97526.94;;;7.36;100.00
11038;BME280;5572;49.540;11.932;2024-03-07T13:43:04;97536.09;;;7.72;100.00
11038;BME280;5572;49.540;11.932;2024-03-07T13:45:32;97538.00;;;7.56;100.00
11038;BME280;5572;49.540;11.932;2024-03-07T13:48:05;97537.91;;;7.67;100.00
11038;BME280;5572;49.540;11.932;2024-03-07T13:50:33;97517.56;;;7.38;100.00
11038;BME280;5572;49.540;11.932;2024-03-07T13:53:00;97547.91;;;7.71;100.00
11038;BME280;5572;49.540;11.932;2024-03-07T13:55:52;97536.22;;;7.28;100.00
11038;BME280;5572;49.540;11.932;2024-03-07T13:58:34;97509.16;;;7.51;100.00
11038;BME280;5572;49.540;11.932;2024-03-07T14:01:17;97548.34;;;7.47;100.00
11038;BME280;5572;49.540;11.932;2024-03-07T14:06:49;97524.41;;;7.83;100.00
11038;BME280;5572;49.540;11.932;2024-03-07T14:09:43;97586.25;;;7.62;100.00
11038;BME280;5572;49.540;11.932;2024-03-07T14:12:31;97538.91;;;7.45;100.00
11038;BME280;5572;49.540;11.932;2024-03-07T14:21:49;97655.00;;;7.25;100.00
11038;BME280;5572;49.540;11.932;2024-03-07T14:27:30;97595.84;;;6.81;100.00
11038;BME280;5572;49.540;11.932;2024-03-07T14:30:28;97630.69;;;7.04;100.00
11038;BME280;5572;49.540;11.932;2024-03-07T14:33:06;97642.78;;;6.90;100.00
11038;BME280;5572;49.540;11.932;2024-03-07T14:35:57;97642.50;;;6.75;100.00
11038;BME280;5572;49.540;11.932;2024-03-07T14:38:27;97618.16;;;6.54;100.00
11038;BME280;5572;49.540;11.932;2024-03-07T14:40:54;97626.63;;;6.74;100.00
11038;BME280;5572;49.540;11.932;2024-03-07T14:43:22;97650.84;;;6.51;100.00
11038;BME280;5572;49.540;11.932;2024-03-07T14:45:49;97645.63;;;7.11;100.00
11038;BME280;5572;49.540;11.932;2024-03-07T14:48:20;97635.25;;;7.03;100.00
11038;BME280;5572;49.540;11.932;2024-03-07T14:50:47;97658.03;;;6.73;100.00
11038;BME280;5572;49.540;11.932;2024-03-07T14:53:14;97652.41;;;6.75;100.00
11038;BME280;5572;49.540;11.932;2024-03-07T14:55:45;97596.69;;;6.82;100.00
11038;BME280;5572;49.540;11.932;2024-03-07T14:58:11;97646.75;;;6.60;100.00
11038;BME280;5572;49.540;11.932;2024-03-07T15:00:40;97640.94;;;6.40;100.00
11038;BME280;5572;49.540;11.932;2024-03-07T15:03:07;97615.03;;;6.34;100.00
11038;BME280;5572;49.540;11.932;2024-03-07T15:05:35;97659.88;;;6.84;100.00
11038;BME280;5572;49.540;11.932;2024-03-07T15:08:02;97631.09;;;6.57;100.00
11038;BME280;5572;49.540;11.932;2024-03-07T15:10:32;97686.47;;;7.25;100.00
11038;BME280;5572;49.540;11.932;2024-03-07T15:13:01;97639.19;;;7.12;100.00
11038;BME280;5572;49.540;11.932;2024-03-07T15:15:28;97622.41;;;6.38;100.00
11038;BME280;5572;49.540;11.932;2024-03-07T15:17:56;97644.72;;;6.27;100.00
11038;BME280;5572;49.540;11.932;2024-03-07T15:20:24;97644.00;;;6.32;100.00
11038;BME280;5572;49.540;11.932;2024-03-07T15:22:53;97658.13;;;6.39;100.00
11038;BME280;5572;49.540;11.932;2024-03-07T15:25:20;97661.09;;;6.65;100.00
11038;BME280;5572;49.540;11.932;2024-03-07T15:27:48;97646.78;;;6.37;100.00
11038;BME280;5572;49.540;11.932;2024-03-07T15:30:17;97711.16;;;6.82;100.00
11038;BME280;5572;49.540;11.932;2024-03-07T15:32:45;97688.25;;;6.91;100.00
11038;BME280;5572;49.540;11.932;2024-03-07T15:35:13;97701.94;;;6.79;100.00
11038;BME280;5572;49.540;11.932;2024-03-07T15:37:43;97687.19;;;6.42;100.00
11038;BME280;5572;49.540;11.932;2024-03-07T15:40:10;97639.81;;;6.24;100.00
11038;BME280;5572;49.540;11.932;2024-03-07T15:42:41;97673.66;;;6.14;100.00
11038;BME280;5572;49.540;11.932;2024-03-07T15:45:13;97712.97;;;6.54;100.00
11038;BME280;5572;49.540;11.932;2024-03-07T15:47:46;97700.81;;;6.63;100.00
11038;BME280;5572;49.540;11.932;2024-03-07T15:50:14;97659.22;;;6.66;100.00
11038;BME280;5572;49.540;11.932;2024-03-07T15:52:44;97666.56;;;6.70;100.00
11038;BME280;5572;49.540;11.932;2024-03-07T15:55:11;97705.22;;;6.81;100.00
11038;BME280;5572;49.540;11.932;2024-03-07T15:57:44;97654.13;;;6.41;100.00
11038;BME280;5572;49.540;11.932;2024-03-07T16:00:13;97724.41;;;6.61;100.00
11038;BME280;5572;49.540;11.932;2024-03-07T16:02:52;97691.72;;;6.41;100.00
11038;BME280;5572;49.540;11.932;2024-03-07T16:05:19;97703.78;;;6.04;100.00
11038;BME280;5572;49.540;11.932;2024-03-07T16:07:47;97716.28;;;6.22;100.00
11038;BME280;5572;49.540;11.932;2024-03-07T16:10:15;97699.34;;;5.98;100.00
11038;BME280;5572;49.540;11.932;2024-03-07T16:12:42;97712.97;;;5.86;100.00
11038;BME280;5572;49.540;11.932;2024-03-07T16:15:09;97759.56;;;6.25;100.00
11038;BME280;5572;49.540;11.932;2024-03-07T16:17:37;97754.75;;;6.16;100.00
11038;BME280;5572;49.540;11.932;2024-03-07T16:20:06;97744.47;;;5.90;100.00
11038;BME280;5572;49.540;11.932;2024-03-07T16:22:42;97758.09;;;5.77;100.00
11038;BME280;5572;49.540;11.932;2024-03-07T16:25:10;97765.94;;;5.79;100.00
11038;BME280;5572;49.540;11.932;2024-03-07T16:27:40;97758.47;;;5.92;100.00
11038;BME280;5572;49.540;11.932;2024-03-07T16:30:09;97754.78;;;5.75;100.00
11038;BME280;5572;49.540;11.932;2024-03-07T16:32:37;97786.78;;;5.77;100.00
11038;BME280;5572;49.540;11.932;2024-03-07T16:35:06;97769.88;;;5.47;100.00
11038;BME280;5572;49.540;11.932;2024-03-07T16:37:37;97772.94;;;5.62;100.00
11038;BME280;5572;49.540;11.932;2024-03-07T16:40:06;97748.84;;;5.73;100.00
11038;BME280;5572;49.540;11.932;2024-03-07T16:42:33;97773.28;;;5.65;100.00
11038;BME280;5572;49.540;11.932;2024-03-07T16:44:59;97766.03;;;5.54;100.00
11038;BME280;5572;49.540;11.932;2024-03-07T16:47:27;97758.38;;;5.58;100.00
11038;BME280;5572;49.540;11.932;2024-03-07T16:49:54;97775.00;;;5.48;100.00
11038;BME280;5572;49.540;11.932;2024-03-07T16:52:22;97757.97;;;5.43;100.00
11038;BME280;5572;49.540;11.932;2024-03-07T16:54:48;97746.78;;;5.16;100.00
11038;BME280;5572;49.540;11.932;2024-03-07T16:57:16;97755.56;;;5.23;100.00
11038;BME280;5572;49.540;11.932;2024-03-07T16:59:42;97746.06;;;5.09;100.00
11038;BME280;5572;49.540;11.932;2024-03-07T17:02:09;97742.38;;;5.22;100.00
11038;BME280;5572;49.540;11.932;2024-03-07T17:04:36;97735.59;;;5.19;100.00
11038;BME280;5572;49.540;11.932;2024-03-07T17:07:03;97735.09;;;5.11;100.00
11038;BME280;5572;49.540;11.932;2024-03-07T17:09:33;97741.31;;;4.94;100.00
11038;BME280;5572;49.540;11.932;2024-03-07T17:11:59;97738.44;;;4.77;100.00
11038;BME280;5572;49.540;11.932;2024-03-07T17:14:26;97735.84;;;4.71;100.00
11038;BME280;5572;49.540;11.932;2024-03-07T17:16:52;97723.16;;;4.78;100.00
11038;BME280;5572;49.540;11.932;2024-03-07T17:19:19;97736.34;;;4.61;100.00
11038;BME280;5572;49.540;11.932;2024-03-07T17:21:46;97722.56;;;4.76;100.00
11038;BME280;5572;49.540;11.932;2024-03-07T17:24:13;97710.22;;;4.75;100.00
11038;BME280;5572;49.540;11.932;2024-03-07T17:26:44;97696.25;;;4.73;100.00
11038;BME280;5572;49.540;11.932;2024-03-07T17:29:10;97696.47;;;4.71;100.00
11038;BME280;5572;49.540;11.932;2024-03-07T17:31:37;97685.72;;;4.60;100.00
11038;BME280;5572;49.540;11.932;2024-03-07T17:34:03;97685.47;;;4.61;100.00
11038;BME280;5572;49.540;11.932;2024-03-07T17:36:31;97661.28;;;4.68;100.00
11038;BME280;5572;49.540;11.932;2024-03-07T17:38:59;97668.38;;;4.44;100.00
11038;BME280;5572;49.540;11.932;2024-03-07T17:41:25;97660.13;;;4.46;100.00
11038;BME280;5572;49.540;11.932;2024-03-07T17:43:53;97690.16;;;4.30;100.00
11038;BME280;5572;49.540;11.932;2024-03-07T17:46:23;97693.13;;;4.04;100.00
11038;BME280;5572;49.540;11.932;2024-03-07T17:48:52;97713.53;;;3.74;100.00
11038;BME280;5572;49.540;11.932;2024-03-07T17:51:19;97723.91;;;3.64;100.00
11038;BME280;5572;49.540;11.932;2024-03-07T17:53:45;97727.63;;;3.63;100.00
11038;BME280;5572;49.540;11.932;2024-03-07T17:56:14;97720.03;;;3.36;100.00
11038;BME280;5572;49.540;11.932;2024-03-07T17:58:41;97715.28;;;3.38;100.00
11038;BME280;5572;49.540;11.932;2024-03-07T18:01:09;97705.47;;;3.26;100.00
11038;BME280;5572;49.540;11.932;2024-03-07T18:03:39;97696.09;;;3.17;100.00
11038;BME280;5572;49.540;11.932;2024-03-07T18:06:07;97690.16;;;2.84;100.00
11038;BME280;5572;49.540;11.932;2024-03-07T18:08:35;97694.03;;;2.81;100.00
11038;BME280;5572;49.540;11.932;2024-03-07T18:11:03;97683.63;;;2.73;100.00
11038;BME280;5572;49.540;11.932;2024-03-07T18:13:30;97685.69;;;2.65;100.00
11038;BME280;5572;49.540;11.932;2024-03-07T18:15:58;97677.56;;;2.53;100.00
11038;BME280;5572;49.540;11.932;2024-03-07T18:18:26;97674.44;;;2.63;100.00
11038;BME280;5572;49.540;11.932;2024-03-07T18:20:52;97657.22;;;2.59;100.00
11038;BME280;5572;49.540;11.932;2024-03-07T18:23:21;97661.97;;;2.51;100.00
11038;BME280;5572;49.540;11.932;2024-03-07T18:25:48;97660.38;;;2.43;100.00
11038;BME280;5572;49.540;11.932;2024-03-07T18:28:14;97663.34;;;2.16;100.00
11038;BME280;5572;49.540;11.932;2024-03-07T18:30:46;97662.31;;;2.17;100.00
11038;BME280;5572;49.540;11.932;2024-03-07T18:33:13;97656.13;;;2.16;100.00
11038;BME280;5572;49.540;11.932;2024-03-07T18:35:40;97653.22;;;2.31;100.00
11038;BME280;5572;49.540;11.932;2024-03-07T18:38:08;97648.59;;;2.13;100.00
11038;BME280;5572;49.540;11.932;2024-03-07T18:40:34;97643.84;;;2.15;100.00
11038;BME280;5572;49.540;11.932;2024-03-07T18:43:01;97648.16;;;2.10;100.00
11038;BME280;5572;49.540;11.932;2024-03-07T18:45:32;97649.84;;;1.98;100.00
11038;BME280;5572;49.540;11.932;2024-03-07T18:48:01;97650.66;;;1.98;100.00
11038;BME280;5572;49.540;11.932;2024-03-07T18:50:32;97643.69;;;1.97;100.00
11038;BME280;5572;49.540;11.932;2024-03-07T18:53:00;97651.91;;;1.89;100.00
11038;BME280;5572;49.540;11.932;2024-03-07T18:55:27;97638.81;;;1.94;100.00
11038;BME280;5572;49.540;11.932;2024-03-07T18:57:55;97652.97;;;1.75;100.00
11038;BME280;5572;49.540;11.932;2024-03-07T19:00:23;97654.59;;;1.89;100.00
11038;BME280;5572;49.540;11.932;2024-03-07T19:02:58;97652.13;;;1.88;100.00
11038;BME280;5572;49.540;11.932;2024-03-07T19:05:26;97650.28;;;1.82;100.00
11038;BME280;5572;49.540;11.932;2024-03-07T19:07:53;97662.81;;;1.75;100.00
11038;BME280;5572;49.540;11.932;2024-03-07T19:10:22;97664.88;;;1.60;100.00
11038;BME280;5572;49.540;11.932;2024-03-07T19:12:54;97666.72;;;1.72;100.00
11038;BME280;5572;49.540;11.932;2024-03-07T19:15:20;97666.09;;;1.64;100.00
11038;BME280;5572;49.540;11.932;2024-03-07T19:17:47;97666.09;;;1.58;100.00
11038;BME280;5572;49.540;11.932;2024-03-07T19:20:16;97675.94;;;1.38;100.00
11038;BME280;5572;49.540;11.932;2024-03-07T19:22:44;97673.28;;;1.51;100.00
11038;BME280;5572;49.540;11.932;2024-03-07T19:25:12;97675.31;;;1.36;100.00
11038;BME280;5572;49.540;11.932;2024-03-07T19:27:41;97683.91;;;1.05;100.00
11038;BME280;5572;49.540;11.932;2024-03-07T19:30:12;97681.03;;;0.94;100.00
11038;BME280;5572;49.540;11.932;2024-03-07T19:32:39;97679.84;;;1.03;100.00
11038;BME280;5572;49.540;11.932;2024-03-07T19:35:07;97675.72;;;0.94;100.00
11038;BME280;5572;49.540;11.932;2024-03-07T19:37:39;97678.38;;;1.07;100.00
11038;BME280;5572;49.540;11.932;2024-03-07T19:40:07;97669.00;;;1.17;100.00
11038;BME280;5572;49.540;11.932;2024-03-07T19:42:37;97657.31;;;1.31;100.00
11038;BME280;5572;49.540;11.932;2024-03-07T19:45:06;97665.91;;;1.46;100.00
11038;BME280;5572;49.540;11.932;2024-03-07T19:47:33;97652.59;;;1.46;100.00
11038;BME280;5572;49.540;11.932;2024-03-07T19:49:59;97663.25;;;1.46;100.00
11038;BME280;5572;49.540;11.932;2024-03-07T19:52:26;97644.94;;;1.88;100.00
11038;BME280;5572;49.540;11.932;2024-03-07T19:54:53;97660.16;;;1.68;100.00
11038;BME280;5572;49.540;11.932;2024-03-07T19:57:20;97657.25;;;1.83;100.00
11038;BME280;5572;49.540;11.932;2024-03-07T19:59:53;97660.75;;;1.83;100.00
11038;BME280;5572;49.540;11.932;2024-03-07T20:02:21;97654.31;;;2.10;100.00
11038;BME280;5572;49.540;11.932;2024-03-07T20:04:48;97657.53;;;2.25;100.00
11038;BME280;5572;49.540;11.932;2024-03-07T20:07:16;97654.84;;;2.32;100.00
11038;BME280;5572;49.540;11.932;2024-03-07T20:09:42;97656.97;;;2.17;100.00
11038;BME280;5572;49.540;11.932;2024-03-07T20:12:12;97654.19;;;2.49;100.00
11038;BME280;5572;49.540;11.932;2024-03-07T20:14:42;97656.81;;;2.55;100.00
11038;BME280;5572;49.540;11.932;2024-03-07T20:17:12;97651.75;;;2.41;100.00
11038;BME280;5572;49.540;11.932;2024-03-07T20:19:40;97651.44;;;2.18;100.00
11038;BME280;5572;49.540;11.932;2024-03-07T20:22:07;97664.03;;;2.49;100.00
11038;BME280;5572;49.540;11.932;2024-03-07T20:24:33;97647.56;;;2.58;100.00
11038;BME280;5572;49.540;11.932;2024-03-07T20:27:01;97649.06;;;2.48;100.00
11038;BME280;5572;49.540;11.932;2024-03-07T20:29:27;97641.50;;;2.38;100.00
11038;BME280;5572;49.540;11.932;2024-03-07T20:31:54;97665.22;;;2.09;100.00
11038;BME280;5572;49.540;11.932;2024-03-07T20:34:22;97671.19;;;1.91;100.00
11038;BME280;5572;49.540;11.932;2024-03-07T20:36:50;97668.94;;;1.82;100.00
11038;BME280;5572;49.540;11.932;2024-03-07T20:39:17;97664.25;;;1.77;100.00
11038;BME280;5572;49.540;11.932;2024-03-07T20:41:48;97661.38;;;1.72;100.00
11038;BME280;5572;49.540;11.932;2024-03-07T20:44:15;97666.50;;;1.61;100.00
11038;BME280;5572;49.540;11.932;2024-03-07T20:46:41;97671.84;;;1.61;100.00
11038;BME280;5572;49.540;11.932;2024-03-07T20:49:08;97665.09;;;1.59;100.00
11038;BME280;5572;49.540;11.932;2024-03-07T20:51:35;97654.59;;;1.76;100.00
11038;BME280;5572;49.540;11.932;2024-03-07T20:54:04;97648.88;;;1.73;100.00
11038;BME280;5572;49.540;11.932;2024-03-07T20:56:31;97647.03;;;1.73;100.00
11038;BME280;5572;49.540;11.932;2024-03-07T20:58:57;97649.91;;;1.66;100.00
11038;BME280;5572;49.540;11.932;2024-03-07T21:01:24;97653.22;;;1.42;100.00
11038;BME280;5572;49.540;11.932;2024-03-07T21:03:50;97668.56;;;1.07;100.00
11038;BME280;5572;49.540;11.932;2024-03-07T21:06:19;97666.09;;;1.12;100.00
11038;BME280;5572;49.540;11.932;2024-03-07T21:08:45;97666.88;;;0.87;100.00
11038;BME280;5572;49.540;11.932;2024-03-07T21:11:23;97656.69;;;1.36;100.00
11038;BME280;5572;49.540;11.932;2024-03-07T21:13:51;97665.72;;;1.15;100.00
11038;BME280;5572;49.540;11.932;2024-03-07T21:16:19;97664.28;;;1.13;100.00
11038;BME280;5572;49.540;11.932;2024-03-07T21:18:46;97654.22;;;1.28;100.00
11038;BME280;5572;49.540;11.932;2024-03-07T21:21:13;97650.34;;;1.50;100.00
11038;BME280;5572;49.540;11.932;2024-03-07T21:23:39;97634.88;;;1.97;100.00
11038;BME280;5572;49.540;11.932;2024-03-07T21:26:08;97619.69;;;1.97;100.00
11038;BME280;5572;49.540;11.932;2024-03-07T21:28:38;97626.69;;;1.92;100.00
11038;BME280;5572;49.540;11.932;2024-03-07T21:31:05;97638.44;;;1.78;100.00
11038;BME280;5572;49.540;11.932;2024-03-07T21:33:32;97629.34;;;1.92;100.00
11038;BME280;5572;49.540;11.932;2024-03-07T21:35:59;97634.50;;;1.87;100.00
11038;BME280;5572;49.540;11.932;2024-03-07T21:38:26;97647.47;;;1.51;100.00
11038;BME280;5572;49.540;11.932;2024-03-07T21:40:53;97647.06;;;1.54;100.00
11038;BME280;5572;49.540;11.932;2024-03-07T21:43:19;97642.09;;;1.83;100.00
11038;BME280;5572;49.540;11.932;2024-03-07T21:45:48;97648.47;;;1.57;100.00
11038;BME280;5572;49.540;11.932;2024-03-07T21:48:15;97654.88;;;1.43;100.00
11038;BME280;5572;49.540;11.932;2024-03-07T21:50:42;97647.06;;;1.48;100.00
11038;BME280;5572;49.540;11.932;2024-03-07T21:53:08;97649.75;;;1.35;100.00
11038;BME280;5572;49.540;11.932;2024-03-07T21:55:36;97630.44;;;1.71;100.00
11038;BME280;5572;49.540;11.932;2024-03-07T21:58:03;97632.09;;;1.66;100.00
11038;BME280;5572;49.540;11.932;2024-03-07T22:00:34;97625.72;;;1.67;100.00
11038;BME280;5572;49.540;11.932;2024-03-07T22:03:03;97631.84;;;1.80;100.00
11038;BME280;5572;49.540;11.932;2024-03-07T22:05:32;97629.59;;;1.77;100.00
11038;BME280;5572;49.540;11.932;2024-03-07T22:07:58;97625.72;;;1.73;100.00
11038;BME280;5572;49.540;11.932;2024-03-07T22:10:25;97638.44;;;1.52;100.00
11038;BME280;5572;49.540;11.932;2024-03-07T22:12:54;97630.06;;;1.62;100.00
11038;BME280;5572;49.540;11.932;2024-03-07T22:15:23;97607.84;;;1.93;100.00
11038;BME280;5572;49.540;11.932;2024-03-07T22:17:50;97621.19;;;1.74;100.00
11038;BME280;5572;49.540;11.932;2024-03-07T22:20:18;97617.31;;;1.70;100.00
11038;BME280;5572;49.540;11.932;2024-03-07T22:22:47;97621.66;;;1.65;100.00
11038;BME280;5572;49.540;11.932;2024-03-07T22:25:14;97599.66;;;1.75;100.00
11038;BME280;5572;49.540;11.932;2024-03-07T22:27:41;97592.53;;;1.69;100.00
11038;BME280;5572;49.540;11.932;2024-03-07T22:30:09;97603.81;;;1.59;100.00
11038;BME280;5572;49.540;11.932;2024-03-07T22:32:39;97599.91;;;1.61;100.00
11038;BME280;5572;49.540;11.932;2024-03-07T22:35:06;97590.09;;;1.55;100.00
11038;BME280;5572;49.540;11.932;2024-03-07T22:37:37;97590.06;;;1.68;100.00
11038;BME280;5572;49.540;11.932;2024-03-07T22:40:05;97585.19;;;1.52;100.00
11038;BME280;5572;49.540;11.932;2024-03-07T22:42:36;97582.34;;;1.47;100.00
11038;BME280;5572;49.540;11.932;2024-03-07T22:45:03;97582.56;;;1.39;100.00
11038;BME280;5572;49.540;11.932;2024-03-07T22:47:30;97582.34;;;1.47;100.00
11038;BME280;5572;49.540;11.932;2024-03-07T22:49:57;97584.38;;;1.39;100.00
11038;BME280;5572;49.540;11.932;2024-03-07T22:52:24;97585.63;;;1.36;100.00
11038;BME280;5572;49.540;11.932;2024-03-07T22:54:52;97586.00;;;1.53;100.00
11038;BME280;5572;49.540;11.932;2024-03-07T22:57:19;97583.53;;;1.51;100.00
11038;BME280;5572;49.540;11.932;2024-03-07T22:59:45;97579.03;;;1.58;100.00
11038;BME280;5572;49.540;11.932;2024-03-07T23:02:12;97587.25;;;1.44;100.00
11038;BME280;5572;49.540;11.932;2024-03-07T23:04:39;97584.78;;;1.55;100.00
11038;BME280;5572;49.540;11.932;2024-03-07T23:07:05;97589.50;;;1.40;100.00
11038;BME280;5572;49.540;11.932;2024-03-07T23:09:32;97580.03;;;1.64;100.00
11038;BME280;5572;49.540;11.932;2024-03-07T23:12:01;97588.09;;;1.12;100.00
11038;BME280;5572;49.540;11.932;2024-03-07T23:14:27;97597.50;;;1.14;100.00
11038;BME280;5572;49.540;11.932;2024-03-07T23:16:54;97605.91;;;0.92;100.00
11038;BME280;5572;49.540;11.932;2024-03-07T23:19:21;97609.78;;;0.77;100.00
11038;BME280;5572;49.540;11.932;2024-03-07T23:21:47;97605.06;;;0.72;100.00
11038;BME280;5572;49.540;11.932;2024-03-07T23:24:14;97620.97;;;0.40;100.00
11038;BME280;5572;49.540;11.932;2024-03-07T23:26:41;97605.66;;;0.55;100.00
11038;BME280;5572;49.540;11.932;2024-03-07T23:29:14;97612.19;;;0.52;100.00
11038;BME280;5572;49.540;11.932;2024-03-07T23:31:41;97606.88;;;0.52;100.00
11038;BME280;5572;49.540;11.932;2024-03-07T23:34:08;97604.41;;;0.57;100.00
11038;BME280;5572;49.540;11.932;2024-03-07T23:36:37;97606.09;;;0.90;100.00
11038;BME280;5572;49.540;11.932;2024-03-07T23:39:04;97598.75;;;0.80;100.00
11038;BME280;5572;49.540;11.932;2024-03-07T23:41:30;97589.34;;;1.09;100.00
11038;BME280;5572;49.540;11.932;2024-03-07T23:43:58;97579.28;;;1.37;100.00
11038;BME280;5572;49.540;11.932;2024-03-07T23:46:33;97584.38;;;1.32;100.00
11038;BME280;5572;49.540;11.932;2024-03-07T23:49:00;97599.38;;;1.01;100.00
11038;BME280;5572;49.540;11.932;2024-03-07T23:51:26;97595.88;;;0.81;100.00
11038;BME280;5572;49.540;11.932;2024-03-07T23:53:53;97595.88;;;0.81;100.00
11038;BME280;5572;49.540;11.932;2024-03-07T23:56:19;97597.09;;;0.72;100.00
11038;BME280;5572;49.540;11.932;2024-03-07T23:58:47;97577.22;;;1.00;100.00
